Iberica Hav — C6YI3 — position and weather

sailwx.info

Track history (hours):
 
Tides and Currents Weather Stations Pressure Air Temp Water Temp Dewpoint Dewpoint Depression Visibility Wind Speed Wind Dir Waves Ship Positions

Iberica Hav

Last reported at 2014-Jul-24 04:16 UTC. Time now 2014-Jul-24 20:03 UTC.
Position N 55°11' W 000°26'.

Length 88 m; draft 3.2 m.

Type: Cargo ship. MMSI: 311034400.

Date/timePositionNaut miles runAvg speedWind from/ knotsBaromVisibWave heightAir tempDewpointWater temp
2014-Jul-24 04:16N 55°11' W 000°26'6 8.7
2014-Jul-24 03:33N 55°05' W 000°21'9 8.4
2014-Jul-24 02:29N 54°57' W 000°15'7 8.1
2014-Jul-24 01:33N 54°50' W 000°10'10 8.0
2014-Jul-24 00:17N 54°41' W 000°02'6 8.2
2014-Jul-23 23:33N 54°35' E 000°02'9 8.7
2014-Jul-23 22:33N 54°27' E 000°08'9 9.2
2014-Jul-23 21:33N 54°19' E 000°15'10 9.6
2014-Jul-23 20:28N 54°10' E 000°23'9 9.6
2014-Jul-23 19:33N 54°02' E 000°29'9 9.4
2014-Jul-23 18:33N 53°54' E 000°37'9 9.0
2014-Jul-23 17:33N 53°46' E 000°45'10 8.3
2014-Jul-23 16:22N 53°37' E 000°53'6 7.6
2014-Jul-23 15:33N 53°32' E 000°58'26 8.2
2014-Jul-23 12:24N 53°09' E 001°20'910.1
2014-Jul-23 11:32N 53°02' E 001°28'1010.7
2014-Jul-23 10:33N 52°54' E 001°39'82 7.9
2014-Jul-23 00:12N 51°48' E 002°58'5 8.2
2014-Jul-22 23:33N 51°47' E 003°07'8 8.2
2014-Jul-22 22:32N 51°42' E 003°18'9 8.7
2014-Jul-22 21:31N 51°35' E 003°24'8 8.7
2014-Jul-22 20:33N 51°27' E 003°31'6 5.9
2014-Jul-22 19:31N 51°28' E 003°41'0 0.0
2014-Jul-22 18:31N 51°28' E 003°41'0 0.0
2014-Jul-22 17:33N 51°28' E 003°41'0 0.0
2014-Jul-22 16:27N 51°28' E 003°41'0 0.0
2014-Jul-22 15:23N 51°28' E 003°41'0 0.0
2014-Jul-22 14:20N 51°28' E 003°41'0 0.0
2014-Jul-22 13:32N 51°28' E 003°41'0 0.0
2014-Jul-22 12:28N 51°28' E 003°41'0 0.0
2014-Jul-22 11:28N 51°28' E 003°41'0 0.0
2014-Jul-22 10:33N 51°28' E 003°41'0 0.0
2014-Jul-22 09:33N 51°28' E 003°41'0 0.0
2014-Jul-22 08:32N 51°28' E 003°41'0 0.0
2014-Jul-22 07:32N 51°28' E 003°41'0 0.0
2014-Jul-22 06:29N 51°28' E 003°41'0 0.0
2014-Jul-22 05:31N 51°28' E 003°41'0 0.0
2014-Jul-22 04:31N 51°28' E 003°41'0 0.0
2014-Jul-22 03:33N 51°28' E 003°41'0 0.0
2014-Jul-22 02:33N 51°28' E 003°41'0 0.0
2014-Jul-22 01:29N 51°28' E 003°41'0 0.0
2014-Jul-22 00:23N 51°28' E 003°41'0 0.0
2014-Jul-21 23:32N 51°28' E 003°41'0 0.0
2014-Jul-21 22:31N 51°28' E 003°41'0 0.0
2014-Jul-21 21:31N 51°28' E 003°41'0 0.0
2014-Jul-21 20:24N 51°28' E 003°41'0 0.0
2014-Jul-21 20:15N 51°28' E 003°41'0 0.0
2014-Jul-21 19:30N 51°28' E 003°41'0 0.0
2014-Jul-21 18:32N 51°28' E 003°41'0 0.0
2014-Jul-21 17:32N 51°28' E 003°41'0 0.0
2014-Jul-21 16:32N 51°28' E 003°41'0 0.0
2014-Jul-21 15:31N 51°28' E 003°41'0 0.0
2014-Jul-21 14:31N 51°28' E 003°41'0 0.0
2014-Jul-21 13:27N 51°28' E 003°41'0 0.0
2014-Jul-21 12:33N 51°28' E 003°41'0 0.0
2014-Jul-21 11:23N 51°28' E 003°41'0 0.0
2014-Jul-21 10:29N 51°28' E 003°41'0 0.0
2014-Jul-21 09:28N 51°28' E 003°41'0 0.0
2014-Jul-21 08:28N 51°28' E 003°41'0 0.0
2014-Jul-21 07:28N 51°28' E 003°41'0 0.0
2014-Jul-21 06:33N 51°28' E 003°41'0 0.0
2014-Jul-21 05:33N 51°28' E 003°41'0 0.0
2014-Jul-21 04:32N 51°28' E 003°41'0 0.0
2014-Jul-21 03:32N 51°28' E 003°41'0 0.0
2014-Jul-21 02:31N 51°28' E 003°41'0 0.0
2014-Jul-21 01:31N 51°28' E 003°41'0 0.0
2014-Jul-21 00:25N 51°28' E 003°41'0 0.0
2014-Jul-20 23:30N 51°28' E 003°41'0 0.0
2014-Jul-20 22:30N 51°28' E 003°41'0 0.0
2014-Jul-20 21:32N 51°28' E 003°41'0 0.0
2014-Jul-20 20:29N 51°28' E 003°41'0 0.0
2014-Jul-20 19:28N 51°28' E 003°41'0 0.0
2014-Jul-20 18:25N 51°28' E 003°41'0 0.1
2014-Jul-20 17:28N 51°28' E 003°41'0 0.1
2014-Jul-20 16:27N 51°28' E 003°41'0 0.0
2014-Jul-20 15:33N 51°28' E 003°41'0 0.0
2014-Jul-20 14:26N 51°28' E 003°41'0 0.0
2014-Jul-20 13:32N 51°28' E 003°41'0 0.0
2014-Jul-20 12:31N 51°28' E 003°41'0 0.0
2014-Jul-20 11:31N 51°28' E 003°41'0 0.0
2014-Jul-20 10:31N 51°28' E 003°41'0 0.0
2014-Jul-20 09:30N 51°28' E 003°41'0 0.0
2014-Jul-20 08:30N 51°28' E 003°41'0 0.0
2014-Jul-20 07:29N 51°28' E 003°41'0 0.0
2014-Jul-20 06:29N 51°28' E 003°41'0 0.0
2014-Jul-20 05:28N 51°28' E 003°41'0 0.0
2014-Jul-20 04:28N 51°28' E 003°41'0 0.0
2014-Jul-20 03:27N 51°28' E 003°41'0 0.0
2014-Jul-20 02:33N 51°28' E 003°41'0 0.0
2014-Jul-20 01:30N 51°28' E 003°41'0 0.0
2014-Jul-20 00:32N 51°28' E 003°41'0 0.0
2014-Jul-19 23:26N 51°28' E 003°41'0 0.0
2014-Jul-19 22:25N 51°28' E 003°41'0 0.0
2014-Jul-19 21:22N 51°28' E 003°41'0 0.0
2014-Jul-19 20:31N 51°28' E 003°41'0 0.0
2014-Jul-19 19:15N 51°28' E 003°41'0 0.0
2014-Jul-19 18:30N 51°28' E 003°41'0 0.0
2014-Jul-19 17:11N 51°28' E 003°41'0 0.0
2014-Jul-19 16:32N 51°28' E 003°41'0 0.0
2014-Jul-19 15:28N 51°28' E 003°41'0 0.0
2014-Jul-19 14:10N 51°28' E 003°41'0 0.0
2014-Jul-19 13:27N 51°28' E 003°41'2 1.8
2014-Jul-19 12:33N 51°26' E 003°41'9 8.9
2014-Jul-19 11:32N 51°25' E 003°55'9 8.8
2014-Jul-19 10:28N 51°23' E 004°10'9 9.5
2014-Jul-19 09:33N 51°17' E 004°19'4 3.9
2014-Jul-19 08:33N 51°14' E 004°24'1 0.5
2014-Jul-19 07:32N 51°15' E 004°24'0 0.0
2014-Jul-19 06:32N 51°15' E 004°24'0 0.0
2014-Jul-19 05:31N 51°15' E 004°24'0 0.0
2014-Jul-19 04:33N 51°15' E 004°24'2 1.9
2014-Jul-19 03:33N 51°14' E 004°27'56 4.7
2014-Jul-18 15:33N 50°41' E 005°39'1 1.0
2014-Jul-18 14:30N 50°40' E 005°38'0 0.0
2014-Jul-18 13:23N 50°40' E 005°38'0 0.0
2014-Jul-18 11:04N 50°40' E 005°38'0 0.0
2014-Jul-18 10:28N 50°40' E 005°38'0 0.0
2014-Jul-18 08:09N 50°40' E 005°38'0 0.0
2014-Jul-18 07:27N 50°40' E 005°38'0 0.0
2014-Jul-18 06:14N 50°40' E 005°38'0 0.0
2014-Jul-18 05:26N 50°40' E 005°38'0 0.0
2014-Jul-18 04:32N 50°40' E 005°38'0 0.0
2014-Jul-18 03:33N 50°40' E 005°38'0 0.0
2014-Jul-18 02:33N 50°40' E 005°38'56 4.0
2014-Jul-17 12:33N 51°14' E 004°29'3 2.9
2014-Jul-17 11:33N 51°15' E 004°24'0 0.0
2014-Jul-17 10:33N 51°15' E 004°24'0 0.1
2014-Jul-17 09:32N 51°15' E 004°24'0 0.0
2014-Jul-17 08:33N 51°15' E 004°24'0 0.0
2014-Jul-17 07:33N 51°15' E 004°24'0 0.0
2014-Jul-17 06:31N 51°15' E 004°24'0 0.0
2014-Jul-17 05:31N 51°15' E 004°24'0 0.0
2014-Jul-17 04:31N 51°15' E 004°24'0 0.0
2014-Jul-17 03:33N 51°15' E 004°24'0 0.0
2014-Jul-17 02:33N 51°15' E 004°24'0 0.1
2014-Jul-17 01:33N 51°15' E 004°24'0 0.1
2014-Jul-17 00:32N 51°15' E 004°24'0 0.0
2014-Jul-16 23:32N 51°15' E 004°24'0 0.0
2014-Jul-16 22:32N 51°15' E 004°24'0 0.0
2014-Jul-16 21:32N 51°15' E 004°24'0 0.0
2014-Jul-16 20:29N 51°15' E 004°24'0 0.0
2014-Jul-16 19:28N 51°15' E 004°24'0 0.0
2014-Jul-16 18:33N 51°15' E 004°24'0 0.0
2014-Jul-16 17:31N 51°15' E 004°24'0 0.0
2014-Jul-16 16:31N 51°15' E 004°24'0 0.0
2014-Jul-16 15:33N 51°15' E 004°24'0 0.0
2014-Jul-16 14:33N 51°15' E 004°24'0 0.0
2014-Jul-16 13:31N 51°15' E 004°24'2 1.9
2014-Jul-16 12:34N 51°16' E 004°21'1 1.3
2014-Jul-16 11:34N 51°17' E 004°20'1 1.1
2014-Jul-16 10:33N 51°17' E 004°19'7 6.5
2014-Jul-16 09:32N 51°23' E 004°13'5 5.1
2014-Jul-16 08:32N 51°24' E 004°05'6 6.2
2014-Jul-16 07:33N 51°26' E 003°56'6 5.2
2014-Jul-16 06:29N 51°22' E 003°49'7 7.3
2014-Jul-16 05:33N 51°25' E 003°39'8 8.2
2014-Jul-16 04:33N 51°25' E 003°26'1310.7
2014-Jul-16 03:19N 51°22' E 003°05'810.8
2014-Jul-16 02:32N 51°22' E 002°52'9 9.3
2014-Jul-16 01:32N 51°22' E 002°37'8 7.5
2014-Jul-16 00:32N 51°20' E 002°25'7 7.4
2014-Jul-15 23:33N 51°16' E 002°15'7 6.9
2014-Jul-15 22:33N 51°13' E 002°06'6 6.1
2014-Jul-15 21:30N 51°10' E 001°57'6 6.0
2014-Jul-15 20:32N 51°07' E 001°49'328 8.2
2014-Jul-14 04:33N 48°16' W 005°25'  
Track history (hours):
 
Tides and Currents Weather Stations Pressure Air Temp Water Temp Dewpoint Dewpoint Depression Visibility Wind Speed Wind Dir Waves Ship Positions

Iberica Hav

Last reported at 2014-Jul-24 04:16 UTC. Time now 2014-Jul-24 20:03 UTC.
Position N 55°11' W 000°26'.

Length 88 m; draft 3.2 m.

Type: Cargo ship. MMSI: 311034400.

Date/timePositionNaut miles runAvg speedWind from/ knotsBaromVisibWave heightAir tempDewpointWater temp
2014-Jul-24 04:16N 55°11' W 000°26'6 8.7
2014-Jul-24 03:33N 55°05' W 000°21'9 8.4
2014-Jul-24 02:29N 54°57' W 000°15'7 8.1
2014-Jul-24 01:33N 54°50' W 000°10'10 8.0
2014-Jul-24 00:17N 54°41' W 000°02'6 8.2
2014-Jul-23 23:33N 54°35' E 000°02'9 8.7
2014-Jul-23 22:33N 54°27' E 000°08'9 9.2
2014-Jul-23 21:33N 54°19' E 000°15'10 9.6
2014-Jul-23 20:28N 54°10' E 000°23'9 9.6
2014-Jul-23 19:33N 54°02' E 000°29'9 9.4
2014-Jul-23 18:33N 53°54' E 000°37'9 9.0
2014-Jul-23 17:33N 53°46' E 000°45'10 8.3
2014-Jul-23 16:22N 53°37' E 000°53'6 7.6
2014-Jul-23 15:33N 53°32' E 000°58'26 8.2
2014-Jul-23 12:24N 53°09' E 001°20'910.1
2014-Jul-23 11:32N 53°02' E 001°28'1010.7
2014-Jul-23 10:33N 52°54' E 001°39'82 7.9
2014-Jul-23 00:12N 51°48' E 002°58'5 8.2
2014-Jul-22 23:33N 51°47' E 003°07'8 8.2
2014-Jul-22 22:32N 51°42' E 003°18'9 8.7
2014-Jul-22 21:31N 51°35' E 003°24'8 8.7
2014-Jul-22 20:33N 51°27' E 003°31'6 5.9
2014-Jul-22 19:31N 51°28' E 003°41'0 0.0
2014-Jul-22 18:31N 51°28' E 003°41'0 0.0
2014-Jul-22 17:33N 51°28' E 003°41'0 0.0
2014-Jul-22 16:27N 51°28' E 003°41'0 0.0
2014-Jul-22 15:23N 51°28' E 003°41'0 0.0
2014-Jul-22 14:20N 51°28' E 003°41'0 0.0
2014-Jul-22 13:32N 51°28' E 003°41'0 0.0
2014-Jul-22 12:28N 51°28' E 003°41'0 0.0
2014-Jul-22 11:28N 51°28' E 003°41'0 0.0
2014-Jul-22 10:33N 51°28' E 003°41'0 0.0
2014-Jul-22 09:33N 51°28' E 003°41'0 0.0
2014-Jul-22 08:32N 51°28' E 003°41'0 0.0
2014-Jul-22 07:32N 51°28' E 003°41'0 0.0
2014-Jul-22 06:29N 51°28' E 003°41'0 0.0
2014-Jul-22 05:31N 51°28' E 003°41'0 0.0
2014-Jul-22 04:31N 51°28' E 003°41'0 0.0
2014-Jul-22 03:33N 51°28' E 003°41'0 0.0
2014-Jul-22 02:33N 51°28' E 003°41'0 0.0
2014-Jul-22 01:29N 51°28' E 003°41'0 0.0
2014-Jul-22 00:23N 51°28' E 003°41'0 0.0
2014-Jul-21 23:32N 51°28' E 003°41'0 0.0
2014-Jul-21 22:31N 51°28' E 003°41'0 0.0
2014-Jul-21 21:31N 51°28' E 003°41'0 0.0
2014-Jul-21 20:24N 51°28' E 003°41'0 0.0
2014-Jul-21 20:15N 51°28' E 003°41'0 0.0
2014-Jul-21 19:30N 51°28' E 003°41'0 0.0
2014-Jul-21 18:32N 51°28' E 003°41'0 0.0
2014-Jul-21 17:32N 51°28' E 003°41'0 0.0
2014-Jul-21 16:32N 51°28' E 003°41'0 0.0
2014-Jul-21 15:31N 51°28' E 003°41'0 0.0
2014-Jul-21 14:31N 51°28' E 003°41'0 0.0
2014-Jul-21 13:27N 51°28' E 003°41'0 0.0
2014-Jul-21 12:33N 51°28' E 003°41'0 0.0
2014-Jul-21 11:23N 51°28' E 003°41'0 0.0
2014-Jul-21 10:29N 51°28' E 003°41'0 0.0
2014-Jul-21 09:28N 51°28' E 003°41'0 0.0
2014-Jul-21 08:28N 51°28' E 003°41'0 0.0
2014-Jul-21 07:28N 51°28' E 003°41'0 0.0
2014-Jul-21 06:33N 51°28' E 003°41'0 0.0
2014-Jul-21 05:33N 51°28' E 003°41'0 0.0
2014-Jul-21 04:32N 51°28' E 003°41'0 0.0
2014-Jul-21 03:32N 51°28' E 003°41'0 0.0
2014-Jul-21 02:31N 51°28' E 003°41'0 0.0
2014-Jul-21 01:31N 51°28' E 003°41'0 0.0
2014-Jul-21 00:25N 51°28' E 003°41'0 0.0
2014-Jul-20 23:30N 51°28' E 003°41'0 0.0
2014-Jul-20 22:30N 51°28' E 003°41'0 0.0
2014-Jul-20 21:32N 51°28' E 003°41'0 0.0
2014-Jul-20 20:29N 51°28' E 003°41'0 0.0
2014-Jul-20 19:28N 51°28' E 003°41'0 0.0
2014-Jul-20 18:25N 51°28' E 003°41'0 0.1
2014-Jul-20 17:28N 51°28' E 003°41'0 0.1
2014-Jul-20 16:27N 51°28' E 003°41'0 0.0
2014-Jul-20 15:33N 51°28' E 003°41'0 0.0
2014-Jul-20 14:26N 51°28' E 003°41'0 0.0
2014-Jul-20 13:32N 51°28' E 003°41'0 0.0
2014-Jul-20 12:31N 51°28' E 003°41'0 0.0
2014-Jul-20 11:31N 51°28' E 003°41'0 0.0
2014-Jul-20 10:31N 51°28' E 003°41'0 0.0
2014-Jul-20 09:30N 51°28' E 003°41'0 0.0
2014-Jul-20 08:30N 51°28' E 003°41'0 0.0
2014-Jul-20 07:29N 51°28' E 003°41'0 0.0
2014-Jul-20 06:29N 51°28' E 003°41'0 0.0
2014-Jul-20 05:28N 51°28' E 003°41'0 0.0
2014-Jul-20 04:28N 51°28' E 003°41'0 0.0
2014-Jul-20 03:27N 51°28' E 003°41'0 0.0
2014-Jul-20 02:33N 51°28' E 003°41'0 0.0
2014-Jul-20 01:30N 51°28' E 003°41'0 0.0
2014-Jul-20 00:32N 51°28' E 003°41'0 0.0
2014-Jul-19 23:26N 51°28' E 003°41'0 0.0
2014-Jul-19 22:25N 51°28' E 003°41'0 0.0
2014-Jul-19 21:22N 51°28' E 003°41'0 0.0
2014-Jul-19 20:31N 51°28' E 003°41'0 0.0
2014-Jul-19 19:15N 51°28' E 003°41'0 0.0
2014-Jul-19 18:30N 51°28' E 003°41'0 0.0
2014-Jul-19 17:11N 51°28' E 003°41'0 0.0
2014-Jul-19 16:32N 51°28' E 003°41'0 0.0
2014-Jul-19 15:28N 51°28' E 003°41'0 0.0
2014-Jul-19 14:10N 51°28' E 003°41'0 0.0
2014-Jul-19 13:27N 51°28' E 003°41'2 1.8
2014-Jul-19 12:33N 51°26' E 003°41'9 8.9
2014-Jul-19 11:32N 51°25' E 003°55'9 8.8
2014-Jul-19 10:28N 51°23' E 004°10'9 9.5
2014-Jul-19 09:33N 51°17' E 004°19'4 3.9
2014-Jul-19 08:33N 51°14' E 004°24'1 0.5
2014-Jul-19 07:32N 51°15' E 004°24'0 0.0
2014-Jul-19 06:32N 51°15' E 004°24'0 0.0
2014-Jul-19 05:31N 51°15' E 004°24'0 0.0
2014-Jul-19 04:33N 51°15' E 004°24'2 1.9
2014-Jul-19 03:33N 51°14' E 004°27'56 4.7
2014-Jul-18 15:33N 50°41' E 005°39'1 1.0
2014-Jul-18 14:30N 50°40' E 005°38'0 0.0
2014-Jul-18 13:23N 50°40' E 005°38'0 0.0
2014-Jul-18 11:04N 50°40' E 005°38'0 0.0
2014-Jul-18 10:28N 50°40' E 005°38'0 0.0
2014-Jul-18 08:09N 50°40' E 005°38'0 0.0
2014-Jul-18 07:27N 50°40' E 005°38'0 0.0
2014-Jul-18 06:14N 50°40' E 005°38'0 0.0
2014-Jul-18 05:26N 50°40' E 005°38'0 0.0
2014-Jul-18 04:32N 50°40' E 005°38'0 0.0
2014-Jul-18 03:33N 50°40' E 005°38'0 0.0
2014-Jul-18 02:33N 50°40' E 005°38'56 4.0
2014-Jul-17 12:33N 51°14' E 004°29'3 2.9
2014-Jul-17 11:33N 51°15' E 004°24'0 0.0
2014-Jul-17 10:33N 51°15' E 004°24'0 0.1
2014-Jul-17 09:32N 51°15' E 004°24'0 0.0
2014-Jul-17 08:33N 51°15' E 004°24'0 0.0
2014-Jul-17 07:33N 51°15' E 004°24'0 0.0
2014-Jul-17 06:31N 51°15' E 004°24'0 0.0
2014-Jul-17 05:31N 51°15' E 004°24'0 0.0
2014-Jul-17 04:31N 51°15' E 004°24'0 0.0
2014-Jul-17 03:33N 51°15' E 004°24'0 0.0
2014-Jul-17 02:33N 51°15' E 004°24'0 0.1
2014-Jul-17 01:33N 51°15' E 004°24'0 0.1
2014-Jul-17 00:32N 51°15' E 004°24'0 0.0
2014-Jul-16 23:32N 51°15' E 004°24'0 0.0
2014-Jul-16 22:32N 51°15' E 004°24'0 0.0
2014-Jul-16 21:32N 51°15' E 004°24'0 0.0
2014-Jul-16 20:29N 51°15' E 004°24'0 0.0
2014-Jul-16 19:28N 51°15' E 004°24'0 0.0
2014-Jul-16 18:33N 51°15' E 004°24'0 0.0
2014-Jul-16 17:31N 51°15' E 004°24'0 0.0
2014-Jul-16 16:31N 51°15' E 004°24'0 0.0
2014-Jul-16 15:33N 51°15' E 004°24'0 0.0
2014-Jul-16 14:33N 51°15' E 004°24'0 0.0
2014-Jul-16 13:31N 51°15' E 004°24'2 1.9
2014-Jul-16 12:34N 51°16' E 004°21'1 1.3
2014-Jul-16 11:34N 51°17' E 004°20'1 1.1
2014-Jul-16 10:33N 51°17' E 004°19'7 6.5
2014-Jul-16 09:32N 51°23' E 004°13'5 5.1
2014-Jul-16 08:32N 51°24' E 004°05'6 6.2
2014-Jul-16 07:33N 51°26' E 003°56'6 5.2
2014-Jul-16 06:29N 51°22' E 003°49'7 7.3
2014-Jul-16 05:33N 51°25' E 003°39'8 8.2
2014-Jul-16 04:33N 51°25' E 003°26'1310.7
2014-Jul-16 03:19N 51°22' E 003°05'810.8
2014-Jul-16 02:32N 51°22' E 002°52'9 9.3
2014-Jul-16 01:32N 51°22' E 002°37'8 7.5
2014-Jul-16 00:32N 51°20' E 002°25'7 7.4
2014-Jul-15 23:33N 51°16' E 002°15'7 6.9
2014-Jul-15 22:33N 51°13' E 002°06'6 6.1
2014-Jul-15 21:30N 51°10' E 001°57'6 6.0
2014-Jul-15 20:32N 51°07' E 001°49'328 8.2
2014-Jul-14 04:33N 48°16' W 005°25'  

Dump ship's entire track history